Aeroporto :
LOGIN :

Iscrizione | Disclaimer

   EN    FR    IT 

 










Sommario :    VFR   VFR Marginale   IFR   IFR Intensivo   IFR Molto Intensivo
Visibilità : 
Base nubi : 
>= 8 km
>= 3000ft
5 / 8 km
1000 / 3000 ft
1500m / 5 km
500 / 1000 ft
800 / 1500m
200 / 500 ft
< 800m
< 200 ft
Simboli :   Temporali  Nebbia  Neve Forte  Precipitazioni Forti  Vento > 20 kt
SIGMETs :   Varie  Temporali  Ghiacco  Turbolenza  Onda orograficha  Ceneri Vulcaniche






- Altitudine del aeroporto : 1187 ft


LIBV - Gioia del Colle Bari

ULTIMO METAR :
  • 171655Z 17006KT CAVOK 12/08 Q1023 RMK FEW FEW200 VIS MIN 9999 WIND THR32 18006KT WIND THR14 17004KT BLU

METARs OBSOLETI :
  • 171555Z 16006KT CAVOK 15/08 Q1023 RMK FEW FEW200 VIS MIN 9999 WIND THR32 18006KT WIND THR14 16004KT BLU
  • 171455Z 02005KT CAVOK 17/08 Q1023 RMK FEW FEW200 VIS MIN 9999 WIND THR32 VRB01KT WIND THR14 02006KT BLU

TAF TAF LIBV
Valido dal 17 a 18 ore il 18 a 03 ore UTC


171700Z 1718/1803 VRB03KT CAVOK
BECMG 1720/1722 5000 BR NSC



MetMap, La meteo Aeronautica in un colpo d'occhio ! - Copyright ORBIFLY Dicembre 2007 - Disclaimer

ORBIFLY MET'MAP TEAM :

Programmazione e sviluppo : Alexandra Zaïnal
Concezione : Baudouin d'Aumeries
Aiuto per la programmazione : Marc-Olivier Méhu
Supporto tecnico e logistico : Manuel Goepfert
Aiuto per la traduzione : Arnaldo La Scala

Contatto : metmap@orbifly.com




FONTI E CREDITI :

   NOAA